EZY358 KMEM-KIND
Flight info
| Callsign | EZY358 |
|---|---|
| Flight time | 0h 55m |
| Altitude | 29000 |
| Route | CRSON7 HUMMS PXV EMBRR SMUKE3 |
| Aircraft | A333/M-V/N |
Departure
| Time | 2026-05-06 01:12 |
|---|---|
| Airport | Memphis International Airport (KMEM) |
Arrival
| Time | 2026-05-06 02:07 |
|---|---|
| Airport | Indianapolis International Airport (KIND) |
| Time | Latitude | Longitude | Altitude | Speed | Heading |
|---|---|---|---|---|---|
| 2026-05-06 00:51 | 35.04102 | -89.97905 | 316 ft | 0 kts | 265° |
| 2026-05-06 00:57 | 35.04103 | -89.97893 | 316 ft | 1 kts | 291° |
| 2026-05-06 00:58 | 35.04098 | -89.97880 | 315 ft | 3 kts | 279° |
| 2026-05-06 00:58 | 35.04099 | -89.97858 | 315 ft | 3 kts | 234° |
| 2026-05-06 00:58 | 35.04109 | -89.97844 | 315 ft | 0 kts | 200° |
| 2026-05-06 00:58 | 35.04107 | -89.97845 | 316 ft | 1 kts | 201° |
| 2026-05-06 00:59 | 35.04105 | -89.97846 | 316 ft | 0 kts | 199° |
| 2026-05-06 01:00 | 35.04104 | -89.97846 | 317 ft | 0 kts | 196° |
| 2026-05-06 01:00 | 35.04102 | -89.97845 | 317 ft | 0 kts | 183° |
| 2026-05-06 01:01 | 35.04100 | -89.97845 | 317 ft | 2 kts | 181° |
| 2026-05-06 01:01 | 35.04053 | -89.97843 | 317 ft | 2 kts | 179° |
| 2026-05-06 01:02 | 35.04015 | -89.97841 | 317 ft | 11 kts | 178° |
| 2026-05-06 01:02 | 35.03918 | -89.97837 | 316 ft | 12 kts | 179° |
| 2026-05-06 01:02 | 35.03806 | -89.97805 | 313 ft | 18 kts | 136° |
| 2026-05-06 01:02 | 35.03807 | -89.97734 | 313 ft | 7 kts | 41° |
| 2026-05-06 01:03 | 35.03850 | -89.97727 | 315 ft | 9 kts | 351° |
| 2026-05-06 01:03 | 35.03944 | -89.97736 | 315 ft | 16 kts | 0° |
| 2026-05-06 01:03 | 35.04073 | -89.97738 | 319 ft | 20 kts | 358° |
| 2026-05-06 01:03 | 35.04207 | -89.97740 | 318 ft | 21 kts | 0° |
| 2026-05-06 01:04 | 35.04372 | -89.97746 | 320 ft | 5 kts | 358° |
| 2026-05-06 01:04 | 35.04384 | -89.97747 | 317 ft | 6 kts | 358° |
| 2026-05-06 01:04 | 35.04469 | -89.97749 | 320 ft | 19 kts | 358° |
| 2026-05-06 01:04 | 35.04629 | -89.97752 | 318 ft | 26 kts | 1° |
| 2026-05-06 01:05 | 35.04788 | -89.97751 | 316 ft | 23 kts | 359° |
| 2026-05-06 01:05 | 35.04892 | -89.97753 | 318 ft | 9 kts | 0° |
| 2026-05-06 01:05 | 35.04999 | -89.97755 | 319 ft | 22 kts | 358° |
| 2026-05-06 01:05 | 35.05140 | -89.97760 | 320 ft | 16 kts | 358° |
| 2026-05-06 01:06 | 35.05268 | -89.97761 | 323 ft | 1 kts | 3° |
| 2026-05-06 01:06 | 35.05282 | -89.97762 | 323 ft | 6 kts | 357° |
| 2026-05-06 01:06 | 35.05360 | -89.97774 | 325 ft | 17 kts | 352° |
| 2026-05-06 01:06 | 35.05439 | -89.97763 | 326 ft | 1 kts | 56° |
| 2026-05-06 01:07 | 35.05441 | -89.97745 | 326 ft | 2 kts | 78° |
| 2026-05-06 01:07 | 35.05441 | -89.97744 | 326 ft | 0 kts | 78° |
| 2026-05-06 01:09 | 35.05443 | -89.97726 | 326 ft | 9 kts | 83° |
| 2026-05-06 01:09 | 35.05427 | -89.97635 | 327 ft | 10 kts | 135° |
| 2026-05-06 01:09 | 35.05384 | -89.97616 | 327 ft | 0 kts | 179° |
| 2026-05-06 01:11 | 35.05365 | -89.97616 | 327 ft | 22 kts | 179° |
| 2026-05-06 01:11 | 35.04901 | -89.97612 | 320 ft | 108 kts | 179° |
| 2026-05-06 01:11 | 35.03918 | -89.97603 | 464 ft | 167 kts | 182° |
| 2026-05-06 01:12 | 35.02607 | -89.97583 | 1013 ft | 212 kts | 181° |
| 2026-05-06 01:12 | 35.00974 | -89.97578 | 1575 ft | 255 kts | 182° |
| 2026-05-06 01:12 | 34.99140 | -89.97506 | 2096 ft | 272 kts | 177° |
| 2026-05-06 01:12 | 34.97340 | -89.96936 | 2856 ft | 264 kts | 170° |
| 2026-05-06 01:13 | 34.95618 | -89.96141 | 3364 ft | 262 kts | 160° |
| 2026-05-06 01:13 | 34.94126 | -89.94896 | 3750 ft | 267 kts | 146° |
| 2026-05-06 01:13 | 34.92941 | -89.93122 | 4162 ft | 274 kts | 128° |
| 2026-05-06 01:13 | 34.91968 | -89.91033 | 4605 ft | 295 kts | 120° |
| 2026-05-06 01:14 | 34.91323 | -89.85857 | 5808 ft | 318 kts | 87° |
| 2026-05-06 01:14 | 34.91918 | -89.83254 | 6231 ft | 319 kts | 67° |
| 2026-05-06 01:14 | 34.92930 | -89.80888 | 6790 ft | 313 kts | 61° |
| 2026-05-06 01:15 | 34.94030 | -89.78546 | 7003 ft | 322 kts | 58° |
| 2026-05-06 01:15 | 34.95337 | -89.76317 | 7294 ft | 324 kts | 47° |
| 2026-05-06 01:15 | 34.96953 | -89.74514 | 7791 ft | 315 kts | 30° |
| 2026-05-06 01:15 | 34.98871 | -89.73379 | 8313 ft | 300 kts | 9° |
| 2026-05-06 01:16 | 35.00873 | -89.73059 | 8904 ft | 283 kts | 352° |
| 2026-05-06 01:16 | 35.02832 | -89.73111 | 9398 ft | 279 kts | 349° |
| 2026-05-06 01:16 | 35.04751 | -89.73267 | 9926 ft | 273 kts | 347° |
| 2026-05-06 01:16 | 35.06612 | -89.73467 | 10435 ft | 267 kts | 345° |
| 2026-05-06 01:17 | 35.08480 | -89.73723 | 10661 ft | 273 kts | 344° |
| 2026-05-06 01:17 | 35.10379 | -89.74029 | 10925 ft | 277 kts | 343° |
| 2026-05-06 01:17 | 35.12377 | -89.74246 | 11396 ft | 297 kts | 348° |
| 2026-05-06 01:17 | 35.14468 | -89.74446 | 12002 ft | 307 kts | 345° |
| 2026-05-06 01:18 | 35.16618 | -89.74727 | 12667 ft | 315 kts | 344° |
| 2026-05-06 01:18 | 35.18818 | -89.74998 | 13415 ft | 322 kts | 346° |
| 2026-05-06 01:18 | 35.21072 | -89.75182 | 14137 ft | 326 kts | 346° |
| 2026-05-06 01:18 | 35.23336 | -89.75378 | 14865 ft | 328 kts | 345° |
| 2026-05-06 01:19 | 35.25587 | -89.75577 | 15647 ft | 329 kts | 346° |
| 2026-05-06 01:19 | 35.27877 | -89.75783 | 16443 ft | 330 kts | 346° |
| 2026-05-06 01:19 | 35.30204 | -89.75988 | 16696 ft | 348 kts | 346° |
| 2026-05-06 01:19 | 35.32692 | -89.75883 | 17071 ft | 370 kts | 1° |
| 2026-05-06 01:20 | 35.35219 | -89.74909 | 17540 ft | 392 kts | 17° |
| 2026-05-06 01:20 | 35.37588 | -89.73116 | 17992 ft | 408 kts | 27° |
| 2026-05-06 01:20 | 35.39920 | -89.71102 | 17995 ft | 413 kts | 29° |
| 2026-05-06 01:20 | 35.42226 | -89.68977 | 17954 ft | 415 kts | 30° |
| 2026-05-06 01:21 | 35.44495 | -89.66775 | 17955 ft | 417 kts | 32° |
| 2026-05-06 01:21 | 35.46721 | -89.64487 | 17975 ft | 417 kts | 33° |
| 2026-05-06 01:21 | 35.48968 | -89.62338 | 18545 ft | 411 kts | 29° |
| 2026-05-06 01:21 | 35.51281 | -89.60428 | 19610 ft | 394 kts | 24° |
| 2026-05-06 01:22 | 35.53559 | -89.58614 | 20576 ft | 385 kts | 25° |
| 2026-05-06 01:22 | 35.55756 | -89.56805 | 21588 ft | 374 kts | 26° |
| 2026-05-06 01:22 | 35.57926 | -89.55138 | 22462 ft | 362 kts | 19° |
| 2026-05-06 01:22 | 35.60124 | -89.53655 | 23184 ft | 360 kts | 19° |
| 2026-05-06 01:23 | 35.62335 | -89.52233 | 23753 ft | 359 kts | 18° |
| 2026-05-06 01:23 | 35.64572 | -89.50840 | 24182 ft | 362 kts | 17° |
| 2026-05-06 01:23 | 35.66795 | -89.49329 | 24697 ft | 369 kts | 24° |
| 2026-05-06 01:23 | 35.68931 | -89.47612 | 25349 ft | 364 kts | 24° |
| 2026-05-06 01:24 | 35.71022 | -89.45887 | 26028 ft | 359 kts | 24° |
| 2026-05-06 01:24 | 35.73054 | -89.44152 | 26717 ft | 353 kts | 25° |
| 2026-05-06 01:24 | 35.75008 | -89.42432 | 27376 ft | 347 kts | 24° |
| 2026-05-06 01:24 | 35.77058 | -89.40976 | 27864 ft | 336 kts | 14° |
| 2026-05-06 01:25 | 35.79191 | -89.39723 | 28114 ft | 344 kts | 16° |
| 2026-05-06 01:25 | 35.81352 | -89.38396 | 28472 ft | 349 kts | 17° |
| 2026-05-06 01:25 | 35.83535 | -89.36986 | 28674 ft | 359 kts | 18° |
| 2026-05-06 01:25 | 35.85771 | -89.35532 | 28813 ft | 369 kts | 19° |
| 2026-05-06 01:26 | 35.88068 | -89.34006 | 28987 ft | 379 kts | 20° |
| 2026-05-06 01:26 | 35.90404 | -89.32413 | 29195 ft | 388 kts | 20° |
| 2026-05-06 01:26 | 35.92776 | -89.30751 | 29305 ft | 399 kts | 21° |
| 2026-05-06 01:26 | 35.95211 | -89.28965 | 29248 ft | 415 kts | 23° |
| 2026-05-06 01:27 | 35.97697 | -89.27141 | 29164 ft | 429 kts | 23° |
| 2026-05-06 01:27 | 36.00304 | -89.25202 | 29046 ft | 446 kts | 24° |
| 2026-05-06 01:27 | 36.02972 | -89.23126 | 28953 ft | 460 kts | 26° |
| 2026-05-06 01:27 | 36.05697 | -89.20961 | 28893 ft | 472 kts | 26° |
| 2026-05-06 01:28 | 36.11312 | -89.16532 | 28824 ft | 481 kts | 26° |
| 2026-05-06 01:28 | 36.16953 | -89.12085 | 28853 ft | 481 kts | 26° |
| 2026-05-06 01:29 | 36.22692 | -89.07861 | 28847 ft | 478 kts | 23° |
| 2026-05-06 01:29 | 36.28482 | -89.03753 | 28887 ft | 483 kts | 22° |
| 2026-05-06 01:30 | 36.34281 | -88.99597 | 28885 ft | 485 kts | 22° |
| 2026-05-06 01:30 | 36.40114 | -88.95349 | 28880 ft | 486 kts | 23° |
| 2026-05-06 01:31 | 36.45902 | -88.90978 | 28886 ft | 487 kts | 24° |
| 2026-05-06 01:31 | 36.51703 | -88.86612 | 29028 ft | 491 kts | 26° |
| 2026-05-06 01:32 | 36.57341 | -88.81773 | 28930 ft | 492 kts | 26° |
| 2026-05-06 01:32 | 36.62972 | -88.77042 | 28840 ft | 491 kts | 27° |
| 2026-05-06 01:33 | 36.68665 | -88.72377 | 28840 ft | 488 kts | 24° |
| 2026-05-06 01:33 | 36.74414 | -88.67868 | 28788 ft | 488 kts | 24° |
| 2026-05-06 01:34 | 36.80188 | -88.63537 | 28835 ft | 483 kts | 23° |
| 2026-05-06 01:34 | 36.85937 | -88.59193 | 28870 ft | 483 kts | 24° |
| 2026-05-06 01:35 | 36.91651 | -88.54772 | 28907 ft | 484 kts | 24° |
| 2026-05-06 01:35 | 36.97400 | -88.50436 | 28891 ft | 482 kts | 22° |
| 2026-05-06 01:36 | 37.03176 | -88.46325 | 28888 ft | 480 kts | 21° |
| 2026-05-06 01:36 | 37.09023 | -88.42362 | 28913 ft | 476 kts | 20° |
| 2026-05-06 01:37 | 37.14851 | -88.38406 | 28930 ft | 481 kts | 24° |
| 2026-05-06 01:37 | 37.20503 | -88.33930 | 28892 ft | 482 kts | 25° |
| 2026-05-06 01:38 | 37.26080 | -88.29315 | 28964 ft | 485 kts | 26° |
| 2026-05-06 01:38 | 37.31650 | -88.24505 | 28887 ft | 485 kts | 26° |
| 2026-05-06 01:39 | 37.37272 | -88.19843 | 28885 ft | 484 kts | 25° |
| 2026-05-06 01:39 | 37.42824 | -88.15215 | 28933 ft | 466 kts | 25° |
| 2026-05-06 01:40 | 37.48215 | -88.10996 | 28911 ft | 456 kts | 21° |
| 2026-05-06 01:40 | 37.53719 | -88.07033 | 28879 ft | 455 kts | 20° |
| 2026-05-06 01:41 | 37.59252 | -88.03203 | 28922 ft | 455 kts | 20° |
| 2026-05-06 01:41 | 37.61984 | -88.01158 | 28785 ft | 457 kts | 24° |
| 2026-05-06 01:41 | 37.64652 | -87.98956 | 28521 ft | 459 kts | 25° |
| 2026-05-06 01:42 | 37.69911 | -87.94353 | 28613 ft | 458 kts | 25° |
| 2026-05-06 01:42 | 37.72528 | -87.92172 | 28735 ft | 458 kts | 24° |
| 2026-05-06 01:42 | 37.75211 | -87.90005 | 28771 ft | 458 kts | 22° |
| 2026-05-06 01:43 | 37.80660 | -87.85779 | 28777 ft | 460 kts | 22° |
| 2026-05-06 01:43 | 37.86134 | -87.81597 | 28849 ft | 459 kts | 21° |
| 2026-05-06 01:44 | 37.91636 | -87.77469 | 28956 ft | 460 kts | 21° |
| 2026-05-06 01:44 | 37.97150 | -87.73398 | 28861 ft | 459 kts | 21° |
| 2026-05-06 01:45 | 38.02609 | -87.69288 | 28813 ft | 459 kts | 21° |
| 2026-05-06 01:45 | 38.05321 | -87.67197 | 28667 ft | 458 kts | 22° |
| 2026-05-06 01:45 | 38.08036 | -87.65106 | 28275 ft | 455 kts | 21° |
| 2026-05-06 01:46 | 38.10768 | -87.63098 | 27910 ft | 452 kts | 20° |
| 2026-05-06 01:46 | 38.13514 | -87.61175 | 27568 ft | 449 kts | 19° |
| 2026-05-06 01:46 | 38.16269 | -87.59342 | 27259 ft | 445 kts | 18° |
| 2026-05-06 01:46 | 38.19027 | -87.57601 | 27009 ft | 441 kts | 16° |
| 2026-05-06 01:47 | 38.21804 | -87.55944 | 26746 ft | 438 kts | 15° |
| 2026-05-06 01:47 | 38.24556 | -87.54282 | 26556 ft | 441 kts | 18° |
| 2026-05-06 01:47 | 38.27252 | -87.52380 | 26532 ft | 445 kts | 22° |
| 2026-05-06 01:47 | 38.29862 | -87.50380 | 26270 ft | 443 kts | 22° |
| 2026-05-06 01:48 | 38.32498 | -87.48340 | 25901 ft | 443 kts | 23° |
| 2026-05-06 01:48 | 38.35116 | -87.46274 | 25553 ft | 442 kts | 24° |
| 2026-05-06 01:48 | 38.37716 | -87.44182 | 25238 ft | 441 kts | 25° |
| 2026-05-06 01:48 | 38.40289 | -87.42070 | 24933 ft | 440 kts | 25° |
| 2026-05-06 01:49 | 38.42843 | -87.39940 | 24615 ft | 438 kts | 25° |
| 2026-05-06 01:49 | 38.45398 | -87.37849 | 24282 ft | 435 kts | 25° |
| 2026-05-06 01:49 | 38.47964 | -87.35809 | 23968 ft | 433 kts | 24° |
| 2026-05-06 01:49 | 38.50543 | -87.33868 | 23574 ft | 428 kts | 22° |
| 2026-05-06 01:50 | 38.53168 | -87.32029 | 22805 ft | 432 kts | 22° |
| 2026-05-06 01:50 | 38.55792 | -87.30215 | 21864 ft | 439 kts | 22° |
| 2026-05-06 01:50 | 38.58512 | -87.28364 | 20899 ft | 446 kts | 22° |
| 2026-05-06 01:50 | 38.61281 | -87.26508 | 20001 ft | 452 kts | 22° |
| 2026-05-06 01:51 | 38.63282 | -87.25186 | 19261 ft | 455 kts | 23° |
| 2026-05-06 01:51 | 38.66237 | -87.23254 | 17585 ft | 476 kts | 23° |
| 2026-05-06 01:51 | 38.69078 | -87.21186 | 16658 ft | 480 kts | 27° |
| 2026-05-06 01:51 | 38.71887 | -87.19016 | 16393 ft | 462 kts | 27° |
| 2026-05-06 01:52 | 38.74575 | -87.16908 | 16110 ft | 447 kts | 28° |
| 2026-05-06 01:52 | 38.77180 | -87.14828 | 15709 ft | 435 kts | 28° |
| 2026-05-06 01:52 | 38.79665 | -87.12805 | 15342 ft | 422 kts | 29° |
| 2026-05-06 01:52 | 38.82075 | -87.10799 | 14795 ft | 406 kts | 30° |
| 2026-05-06 01:53 | 38.84405 | -87.08814 | 14266 ft | 401 kts | 30° |
| 2026-05-06 01:53 | 38.86713 | -87.06808 | 13750 ft | 400 kts | 31° |
| 2026-05-06 01:53 | 38.88996 | -87.04785 | 13163 ft | 397 kts | 32° |
| 2026-05-06 01:53 | 38.91249 | -87.02750 | 12580 ft | 395 kts | 32° |
| 2026-05-06 01:54 | 38.93473 | -87.00704 | 12014 ft | 392 kts | 33° |
| 2026-05-06 01:54 | 38.95667 | -86.98650 | 11486 ft | 388 kts | 33° |
| 2026-05-06 01:54 | 38.97800 | -86.96619 | 10962 ft | 385 kts | 34° |
| 2026-05-06 01:54 | 38.99927 | -86.94569 | 10466 ft | 380 kts | 34° |
| 2026-05-06 01:55 | 39.02027 | -86.92598 | 10292 ft | 365 kts | 33° |
| 2026-05-06 01:55 | 39.04086 | -86.90822 | 10302 ft | 352 kts | 28° |
| 2026-05-06 01:55 | 39.06230 | -86.89350 | 10069 ft | 346 kts | 18° |
| 2026-05-06 01:55 | 39.08452 | -86.88169 | 9925 ft | 346 kts | 21° |
| 2026-05-06 01:56 | 39.10579 | -86.86725 | 9828 ft | 347 kts | 24° |
| 2026-05-06 01:56 | 39.12727 | -86.85348 | 9756 ft | 344 kts | 20° |
| 2026-05-06 01:56 | 39.14930 | -86.84174 | 9702 ft | 341 kts | 15° |
| 2026-05-06 01:56 | 39.17114 | -86.83109 | 9542 ft | 341 kts | 18° |
| 2026-05-06 01:57 | 39.19283 | -86.81862 | 9380 ft | 341 kts | 21° |
| 2026-05-06 01:57 | 39.21403 | -86.80490 | 9160 ft | 341 kts | 24° |
| 2026-05-06 01:57 | 39.23474 | -86.79013 | 8951 ft | 340 kts | 27° |
| 2026-05-06 01:57 | 39.25510 | -86.77481 | 8746 ft | 338 kts | 27° |
| 2026-05-06 01:58 | 39.27563 | -86.76002 | 8590 ft | 336 kts | 25° |
| 2026-05-06 01:58 | 39.29619 | -86.74592 | 8504 ft | 334 kts | 24° |
| 2026-05-06 01:58 | 39.31672 | -86.73183 | 8442 ft | 335 kts | 28° |
| 2026-05-06 01:58 | 39.33587 | -86.71533 | 8322 ft | 325 kts | 34° |
| 2026-05-06 01:59 | 39.35313 | -86.69778 | 8185 ft | 315 kts | 38° |
| 2026-05-06 01:59 | 39.36875 | -86.67865 | 8063 ft | 305 kts | 45° |
| 2026-05-06 01:59 | 39.38251 | -86.65844 | 7964 ft | 295 kts | 47° |
| 2026-05-06 01:59 | 39.39605 | -86.63929 | 7866 ft | 282 kts | 47° |
| 2026-05-06 02:00 | 39.40874 | -86.62082 | 7783 ft | 268 kts | 46° |
| 2026-05-06 02:00 | 39.42137 | -86.60386 | 7664 ft | 254 kts | 44° |
| 2026-05-06 02:00 | 39.43386 | -86.58883 | 7625 ft | 239 kts | 36° |
| 2026-05-06 02:00 | 39.44699 | -86.57592 | 7526 ft | 235 kts | 35° |
| 2026-05-06 02:01 | 39.45980 | -86.56298 | 7361 ft | 232 kts | 35° |
| 2026-05-06 02:01 | 39.47248 | -86.55093 | 7107 ft | 223 kts | 31° |
| 2026-05-06 02:01 | 39.48508 | -86.53983 | 6774 ft | 221 kts | 33° |
| 2026-05-06 02:01 | 39.49751 | -86.52836 | 6486 ft | 217 kts | 34° |
| 2026-05-06 02:02 | 39.50986 | -86.51714 | 6032 ft | 220 kts | 33° |
| 2026-05-06 02:02 | 39.52241 | -86.50594 | 5725 ft | 216 kts | 33° |
| 2026-05-06 02:02 | 39.53479 | -86.49528 | 5466 ft | 209 kts | 31° |
| 2026-05-06 02:02 | 39.54674 | -86.48542 | 5310 ft | 199 kts | 30° |
| 2026-05-06 02:03 | 39.55830 | -86.47596 | 5222 ft | 195 kts | 30° |
| 2026-05-06 02:03 | 39.56952 | -86.46617 | 5103 ft | 195 kts | 36° |
| 2026-05-06 02:03 | 39.57971 | -86.45478 | 5024 ft | 191 kts | 40° |
| 2026-05-06 02:03 | 39.58920 | -86.44324 | 4970 ft | 184 kts | 42° |
| 2026-05-06 02:04 | 39.59823 | -86.43167 | 5008 ft | 182 kts | 43° |
| 2026-05-06 02:04 | 39.60742 | -86.42055 | 5003 ft | 184 kts | 41° |
| 2026-05-06 02:04 | 39.61688 | -86.40935 | 4810 ft | 183 kts | 41° |
| 2026-05-06 02:04 | 39.62608 | -86.39783 | 4588 ft | 187 kts | 43° |
| 2026-05-06 02:05 | 39.63607 | -86.38636 | 4151 ft | 197 kts | 36° |
| 2026-05-06 02:05 | 39.64652 | -86.37393 | 3610 ft | 208 kts | 45° |
| 2026-05-06 02:05 | 39.65640 | -86.36025 | 2684 ft | 212 kts | 44° |
| 2026-05-06 02:05 | 39.66705 | -86.34711 | 1767 ft | 213 kts | 43° |
| 2026-05-06 02:06 | 39.67697 | -86.33405 | 1470 ft | 191 kts | 45° |
| 2026-05-06 02:06 | 39.68589 | -86.32248 | 1216 ft | 172 kts | 42° |
| 2026-05-06 02:06 | 39.69406 | -86.31229 | 984 ft | 157 kts | 43° |
| 2026-05-06 02:06 | 39.70175 | -86.30253 | 800 ft | 154 kts | 42° |
| 2026-05-06 02:07 | 39.70701 | -86.29592 | 794 ft | 73 kts | 47° |
| 2026-05-06 02:07 | 39.71027 | -86.29163 | 791 ft | 61 kts | 44° |
| 2026-05-06 02:07 | 39.71316 | -86.28828 | 793 ft | 47 kts | 25° |
| 2026-05-06 02:07 | 39.71475 | -86.28814 | 793 ft | 11 kts | 359° |
| 2026-05-06 02:08 | 39.71492 | -86.28815 | 792 ft | 2 kts | 359° |
| 2026-05-06 02:08 | 39.71506 | -86.28813 | 792 ft | 0 kts | 3° |
| 2026-05-06 02:09 | 39.71511 | -86.28813 | 792 ft | 5 kts | 3° |
| 2026-05-06 02:10 | 39.71520 | -86.28811 | 792 ft | 0 kts | 13° |
| 2026-05-06 02:10 | 39.71538 | -86.28809 | 791 ft | 4 kts | 0° |
| 2026-05-06 02:10 | 39.71576 | -86.28816 | 790 ft | 7 kts | 345° |
| 2026-05-06 02:10 | 39.71607 | -86.28843 | 790 ft | 5 kts | 316° |
| 2026-05-06 02:11 | 39.71634 | -86.28883 | 789 ft | 6 kts | 301° |
| 2026-05-06 02:11 | 39.71638 | -86.28931 | 789 ft | 6 kts | 257° |
| 2026-05-06 02:11 | 39.71625 | -86.28965 | 790 ft | 5 kts | 238° |
| 2026-05-06 02:11 | 39.71603 | -86.29006 | 790 ft | 6 kts | 235° |
| 2026-05-06 02:12 | 39.71568 | -86.29060 | 791 ft | 10 kts | 229° |
| 2026-05-06 02:12 | 39.71511 | -86.29148 | 790 ft | 15 kts | 230° |
| 2026-05-06 02:12 | 39.71468 | -86.29237 | 791 ft | 4 kts | 284° |
| 2026-05-06 02:12 | 39.71480 | -86.29281 | 791 ft | 7 kts | 288° |
| 2026-05-06 02:13 | 39.71493 | -86.29329 | 791 ft | 0 kts | 289° |
| 2026-05-06 02:13 | 39.71494 | -86.29342 | 791 ft | 2 kts | 275° |
| 2026-05-06 02:13 | 39.71497 | -86.29375 | 792 ft | 5 kts | 283° |
| 2026-05-06 02:13 | 39.71507 | -86.29399 | 792 ft | 0 kts | 303° |